Time;durP1;ratioP1;P1;durP2;ratioP2;P2;SDS_P1;SDS_P2;PMS_P1;PMS_P2;Temp;Humidity;BMP_temperature;BMP_pressure;BME280_temperature;BME280_humidity;BME280_pressure;Samples;Min_cycle;Max_cycle;Signal;HPM_P1;HPM_P2
2022/05/26 00:00:21;;;;;;;4.72;1.63;;;;;;;14.83;63.16;100207.94;5053707;28;20106;-63
2022/05/26 00:03:08;;;;;;;3.67;1.50;;;;;;;14.82;63.40;100217.53;5054216;28;20064;-63
2022/05/26 00:05:52;;;;;;;3.47;2.40;;;;;;;14.83;63.33;100210.56;5053620;28;20051;-64
2022/05/26 00:08:43;;;;;;;1.63;1.50;;;;;;;14.82;63.24;100207.09;5053702;28;20110;-63
2022/05/26 00:11:37;;;;;;;3.20;1.83;;;;;;;14.82;63.48;100204.50;5053798;28;20044;-63
2022/05/26 00:14:24;;;;;;;2.67;1.83;;;;;;;14.82;63.24;100216.66;5038784;28;20044;-63
2022/05/26 00:17:08;;;;;;;4.10;1.88;;;;;;;14.82;63.49;100207.09;5038882;28;20124;-63
2022/05/26 00:19:58;;;;;;;3.38;1.77;;;;;;;14.79;63.31;100209.69;5039186;28;20048;-63
2022/05/26 00:22:45;;;;;;;3.15;2.15;;;;;;;14.80;63.47;100208.84;5038927;28;20067;-64
2022/05/26 00:25:32;;;;;;;4.18;1.80;;;;;;;14.79;63.65;100207.09;5038611;28;20519;-63
2022/05/26 00:28:19;;;;;;;3.63;2.08;;;;;;;14.79;63.85;100203.63;5053825;28;20052;-63
2022/05/26 00:31:03;;;;;;;3.08;2.20;;;;;;;14.79;63.73;100214.06;5053629;28;20048;-64
2022/05/26 00:33:52;;;;;;;2.63;1.90;;;;;;;14.79;63.85;100216.66;5038869;28;20056;-63
2022/05/26 00:36:41;;;;;;;2.08;1.60;;;;;;;14.79;63.81;100214.06;5038183;28;20125;-63
2022/05/26 00:39:25;;;;;;;2.17;1.30;;;;;;;14.77;63.97;100214.94;5038469;28;20131;-63
2022/05/26 00:42:12;;;;;;;4.15;1.95;;;;;;;14.79;64.15;100219.28;5053360;28;20412;-64
2022/05/26 00:44:56;;;;;;;3.22;2.15;;;;;;;14.77;64.25;100214.94;5039005;28;20111;-63
2022/05/26 00:47:46;;;;;;;6.10;1.88;;;;;;;14.78;64.33;100218.38;5038929;28;20553;-64
2022/05/26 00:50:50;;;;;;;3.13;2.30;;;;;;;14.79;64.37;100214.06;5038727;28;20043;-63
2022/05/26 00:53:49;;;;;;;4.00;1.80;;;;;;;14.75;64.29;100213.16;5038343;28;20060;-64
2022/05/26 00:56:53;;;;;;;2.85;2.05;;;;;;;14.74;64.55;100217.53;5053214;28;20067;-65
2022/05/26 00:59:42;;;;;;;2.10;1.60;;;;;;;14.76;64.70;100222.72;5038276;28;20095;-63
2022/05/26 01:02:35;;;;;;;2.92;2.45;;;;;;;14.76;64.60;100215.78;5038501;28;20480;-63
2022/05/26 01:05:37;;;;;;;3.38;1.77;;;;;;;14.75;64.93;100216.66;5053124;28;20064;-63
2022/05/26 01:08:58;;;;;;;3.22;2.28;;;;;;;14.75;64.89;100215.78;5038330;28;20099;-63
2022/05/26 01:11:45;;;;;;;3.05;1.95;;;;;;;14.73;64.79;100230.53;5038394;28;20044;-63
2022/05/26 01:14:42;;;;;;;3.83;2.08;;;;;;;14.75;64.94;100234.03;5037894;28;20091;-64
2022/05/26 01:17:47;;;;;;;4.93;2.35;;;;;;;14.75;64.91;100223.59;5053161;28;20091;-63
2022/05/26 01:20:47;;;;;;;5.70;2.35;;;;;;;14.73;65.00;100228.81;5052707;28;20522;-63
2022/05/26 01:23:52;;;;;;;11.45;2.72;;;;;;;14.71;65.16;100233.16;5037960;28;20076;-63
2022/05/26 01:26:45;;;;;;;3.47;2.05;;;;;;;14.73;65.18;100235.75;5037849;28;20076;-63
2022/05/26 01:30:03;;;;;;;3.42;2.40;;;;;;;14.72;65.30;100234.91;5038112;28;20119;-63
2022/05/26 01:33:05;;;;;;;4.13;2.22;;;;;;;14.73;65.18;100230.53;5037677;28;20044;-64
2022/05/26 01:36:21;;;;;;;5.28;2.35;;;;;;;14.72;65.45;100231.41;5037755;28;20114;-63
2022/05/26 01:39:18;;;;;;;8.38;2.53;;;;;;;14.69;65.19;100223.59;5052503;28;20136;-63
2022/05/26 01:42:02;;;;;;;7.28;2.75;;;;;;;14.71;65.24;100222.72;5056719;28;20072;-62
2022/05/26 01:45:13;;;;;;;7.03;2.90;;;;;;;14.70;65.34;100226.22;5056886;28;20187;-63
2022/05/26 01:48:31;;;;;;;10.13;2.60;;;;;;;14.71;65.58;100224.47;5056768;28;20039;-62
2022/05/26 01:51:29;;;;;;;6.45;2.78;;;;;;;14.70;65.62;100222.75;5056725;28;20512;-63
2022/05/26 01:54:36;;;;;;;5.78;2.92;;;;;;;14.68;65.87;100221.88;5041696;28;20102;-63
2022/05/26 01:57:54;;;;;;;8.88;3.08;;;;;;;14.67;65.88;100218.34;5056005;28;20067;-63
2022/05/26 02:00:45;;;;;;;5.10;2.78;;;;;;;14.67;65.65;100220.09;5056027;28;20059;-64
2022/05/26 02:03:32;;;;;;;4.95;2.85;;;;;;;14.68;65.23;100221.88;5056207;28;20103;-63
2022/05/26 02:06:23;;;;;;;8.77;3.30;;;;;;;14.68;65.90;100227.09;5056691;28;20098;-63
2022/05/26 02:09:20;;;;;;;8.18;2.90;;;;;;;14.69;65.79;100234.03;5041400;28;20055;-63
2022/05/26 02:12:12;;;;;;;7.32;3.20;;;;;;;14.68;65.80;100237.50;5041525;28;20052;-63
2022/05/26 02:15:05;;;;;;;5.60;2.50;;;;;;;14.68;66.03;100232.28;5041342;28;20047;-64
2022/05/26 02:18:22;;;;;;;5.63;2.67;;;;;;;14.68;66.12;100242.72;5055717;28;20051;-63
2022/05/26 02:21:14;;;;;;;5.10;2.92;;;;;;;14.68;66.02;100240.13;5008765;28;20134;-63
2022/05/26 02:24:26;;;;;;;4.05;2.42;;;;;;;14.68;66.29;100246.19;5040757;28;20052;-63
2022/05/26 02:27:15;;;;;;;9.55;2.90;;;;;;;14.68;66.12;100247.94;5055558;28;20489;-63
2022/05/26 02:30:01;;;;;;;6.93;2.83;;;;;;;14.69;66.10;100252.31;5056080;28;20136;-63
2022/05/26 02:32:51;;;;;;;6.88;2.47;;;;;;;14.68;66.25;100248.81;5055455;28;20095;-63
2022/05/26 02:35:46;;;;;;;8.95;2.67;;;;;;;14.68;66.19;100256.63;5055604;28;20098;-63
2022/05/26 02:38:30;;;;;;;6.00;2.55;;;;;;;14.69;66.19;100252.31;5056013;28;20099;-63
2022/05/26 02:41:21;;;;;;;5.15;3.10;;;;;;;14.69;66.29;100262.72;5040967;28;20082;-64
2022/05/26 02:44:06;;;;;;;5.78;2.90;;;;;;;14.69;66.07;100247.94;5055724;28;20051;-65
2022/05/26 02:47:04;;;;;;;6.07;3.20;;;;;;;14.68;66.27;100254.03;5040653;28;20047;-63
2022/05/26 02:50:19;;;;;;;4.75;2.72;;;;;;;14.67;66.29;100257.47;5055325;28;20095;-63
2022/05/26 02:53:28;;;;;;;7.63;3.53;;;;;;;14.66;66.38;100254.88;5040563;28;20082;-63
2022/05/26 02:56:13;;;;;;;7.30;3.00;;;;;;;14.66;66.40;100260.94;5055559;28;20048;-63
2022/05/26 02:59:22;;;;;;;7.63;3.33;;;;;;;14.66;66.57;100255.72;5055311;28;20110;-63
2022/05/26 03:02:19;;;;;;;7.70;2.88;;;;;;;14.66;66.31;100254.88;5054987;28;20056;-63
2022/05/26 03:05:34;;;;;;;10.57;3.63;;;;;;;14.67;66.67;100260.06;5055188;28;20087;-63
2022/05/26 03:08:30;;;;;;;7.95;3.63;;;;;;;14.66;66.62;100262.69;5040417;28;20071;-64
2022/05/26 03:11:26;;;;;;;8.15;3.25;;;;;;;14.64;66.74;100262.66;5055205;28;20527;-64
2022/05/26 03:14:13;;;;;;;5.70;2.88;;;;;;;14.66;66.57;100268.75;5040277;28;20566;-64
2022/05/26 03:16:59;;;;;;;7.75;3.92;;;;;;;14.66;66.73;100268.75;5055002;28;20051;-63
2022/05/26 03:19:49;;;;;;;5.32;2.80;;;;;;;14.65;66.76;100269.63;5054778;28;20039;-63
2022/05/26 03:22:39;;;;;;;10.52;3.38;;;;;;;14.64;66.81;100270.50;5039708;28;20420;-63
2022/05/26 03:25:26;;;;;;;8.48;3.63;;;;;;;14.65;66.89;100273.97;5040081;28;20055;-63
2022/05/26 03:28:13;;;;;;;9.65;3.63;;;;;;;14.65;66.93;100268.75;5055215;28;20174;-63
2022/05/26 03:31:01;;;;;;;7.88;3.78;;;;;;;14.65;67.01;100274.84;5040073;28;20519;-64
2022/05/26 03:43:01;;;;;;;8.82;3.95;;;;;;;14.62;67.18;100283.53;5054708;28;20083;-63
2022/05/26 03:45:53;;;;;;;8.10;3.50;;;;;;;14.64;67.17;100280.91;5054307;28;20048;-65
2022/05/26 03:48:43;;;;;;;9.10;3.72;;;;;;;14.64;67.00;100278.31;5039622;28;20056;-63
2022/05/26 03:51:36;;;;;;;11.05;3.75;;;;;;;14.64;67.16;100287.88;5039606;28;20132;-64
2022/05/26 03:54:22;;;;;;;6.65;3.22;;;;;;;14.65;67.13;100294.84;5054633;28;20051;-63
2022/05/26 03:57:11;;;;;;;7.95;3.72;;;;;;;14.64;67.16;100293.97;5038717;28;20064;-63
2022/05/26 04:00:03;;;;;;;11.13;3.58;;;;;;;14.62;67.32;100309.63;5038626;28;20052;-63
2022/05/26 04:02:48;;;;;;;8.52;3.28;;;;;;;14.64;67.10;100299.19;5053740;28;20067;-63
2022/05/26 04:05:37;;;;;;;8.63;4.03;;;;;;;14.64;67.25;100300.94;5039387;28;20106;-63
2022/05/26 04:08:24;;;;;;;6.15;3.78;;;;;;;14.61;67.58;100307.88;5039086;28;20048;-64
2022/05/26 04:11:11;;;;;;;9.52;4.15;;;;;;;14.62;67.35;100317.44;5038887;28;20518;-62
2022/05/26 04:14:01;;;;;;;10.60;4.03;;;;;;;14.62;67.39;100319.19;5039394;28;20075;-63
2022/05/26 04:16:51;;;;;;;7.32;3.83;;;;;;;14.62;67.65;100317.44;5053502;28;20044;-63
2022/05/26 04:19:42;;;;;;;9.32;3.97;;;;;;;14.64;67.48;100317.44;5039020;28;20111;-64
2022/05/26 04:22:32;;;;;;;13.90;4.55;;;;;;;14.62;67.62;100321.81;5039110;28;20068;-63
2022/05/26 04:25:25;;;;;;;9.82;5.00;;;;;;;14.60;67.49;100319.16;5054011;28;20048;-63
2022/05/26 04:28:12;;;;;;;7.80;4.40;;;;;;;14.62;67.73;100327.03;5053910;28;20088;-63
2022/05/26 04:31:01;;;;;;;10.90;4.50;;;;;;;14.62;67.66;100334.84;5038406;28;20091;-63
2022/05/26 04:33:48;;;;;;;9.70;4.22;;;;;;;14.60;67.81;100342.66;5038494;28;20080;-63
2022/05/26 04:36:34;;;;;;;11.20;4.25;;;;;;;14.61;67.96;100340.94;5038285;28;20091;-63
2022/05/26 04:39:19;;;;;;;10.80;4.55;;;;;;;14.64;67.51;100346.13;5038372;28;20143;-63
2022/05/26 04:42:04;;;;;;;12.85;3.85;;;;;;;14.61;67.81;100347.00;5039056;28;20178;-62
2022/05/26 04:44:49;;;;;;;11.82;4.53;;;;;;;14.62;67.69;100347.88;5053824;28;20060;-63
2022/05/26 04:47:38;;;;;;;10.70;4.32;;;;;;;14.61;67.57;100352.22;5053428;28;20482;-63
2022/05/26 04:50:23;;;;;;;10.98;3.95;;;;;;;14.61;67.66;100354.81;5053223;28;20051;-63
2022/05/26 04:53:09;;;;;;;9.93;4.20;;;;;;;14.60;68.07;100354.84;5053016;28;20415;-63
2022/05/26 04:55:57;;;;;;;12.88;4.72;;;;;;;14.60;67.99;100355.69;5053313;28;20107;-64
2022/05/26 04:58:41;;;;;;;12.60;4.63;;;;;;;14.61;67.74;100361.78;5038220;28;20048;-63
2022/05/26 05:01:28;;;;;;;11.57;5.50;;;;;;;14.59;67.72;100363.53;5052912;28;20049;-63
2022/05/26 05:04:12;;;;;;;13.82;4.18;;;;;;;14.60;68.07;100367.88;5052854;28;20091;-63
2022/05/26 05:06:56;;;;;;;16.38;5.40;;;;;;;14.61;67.87;100364.41;5052975;28;20068;-63
2022/05/26 05:09:43;;;;;;;15.48;5.10;;;;;;;14.60;68.20;100360.91;5053621;28;20059;-63
2022/05/26 05:12:36;;;;;;;7.95;4.53;;;;;;;14.60;68.08;100360.06;5054931;28;20561;-64
2022/05/26 05:15:26;;;;;;;23.48;5.07;;;;;;;14.59;67.96;100364.38;5057529;28;20140;-63
2022/05/26 05:18:12;;;;;;;9.98;4.88;;;;;;;14.58;68.11;100372.22;5042118;28;20088;-63
2022/05/26 05:21:04;;;;;;;11.18;4.85;;;;;;;14.60;67.95;100380.91;5057235;28;20074;-63
2022/05/26 05:23:56;;;;;;;10.68;4.60;;;;;;;14.60;68.04;100387.00;5056878;28;20526;-63
2022/05/26 05:26:50;;;;;;;15.13;5.25;;;;;;;14.58;68.26;100380.88;5042419;28;20102;-63
2022/05/26 05:29:38;;;;;;;12.63;5.18;;;;;;;14.59;68.09;100385.25;5056934;28;20103;-63
2022/05/26 05:32:54;;;;;;;13.77;5.55;;;;;;;14.61;68.17;100385.28;5041951;28;20115;-63
2022/05/26 05:35:53;;;;;;;9.65;4.90;;;;;;;14.59;68.55;100384.38;5041766;28;20048;-63
2022/05/26 05:38:39;;;;;;;10.73;5.13;;;;;;;14.58;68.24;100391.31;5057038;28;20090;-63
2022/05/26 05:41:27;;;;;;;14.55;5.72;;;;;;;14.60;68.42;100384.38;5056849;28;20526;-63
2022/05/26 05:44:16;;;;;;;13.27;5.28;;;;;;;14.61;68.28;100386.13;5042171;28;20098;-63
2022/05/26 05:47:04;;;;;;;15.10;5.15;;;;;;;14.60;68.22;100396.56;5041688;28;20136;-63
2022/05/26 05:49:48;;;;;;;9.85;4.95;;;;;;;14.63;68.34;100399.19;5056950;28;20111;-63
2022/05/26 05:52:41;;;;;;;12.43;6.03;;;;;;;14.62;68.44;100407.88;5056570;28;20128;-63
2022/05/26 05:55:29;;;;;;;17.95;5.50;;;;;;;14.62;68.41;100403.53;5041596;28;20618;-62
2022/05/26 05:58:16;;;;;;;15.00;5.57;;;;;;;14.61;68.27;100414.81;5041464;28;20159;-63
2022/05/26 06:01:00;;;;;;;15.05;5.63;;;;;;;14.62;68.29;100407.88;5041619;28;20098;-63
2022/05/26 06:03:44;;;;;;;19.52;6.57;;;;;;;14.63;68.55;100407.03;5056211;28;20124;-63
2022/05/26 06:06:35;;;;;;;21.38;6.10;;;;;;;14.62;68.36;100413.09;5056428;28;20455;-63
2022/05/26 06:09:20;;;;;;;12.75;5.88;;;;;;;14.61;68.30;100413.97;5056720;28;20134;-63
2022/05/26 06:12:05;;;;;;;16.38;6.03;;;;;;;14.64;68.41;100418.31;5041855;28;20053;-63
2022/05/26 06:14:49;;;;;;;10.15;4.97;;;;;;;14.61;68.61;100427.84;5055816;28;20075;-64
2022/05/26 06:17:36;;;;;;;11.45;4.97;;;;;;;14.60;68.48;100423.50;5041031;28;20063;-63
2022/05/26 06:20:20;;;;;;;12.23;6.25;;;;;;;14.62;68.34;100427.00;5040874;28;20075;-63
2022/05/26 06:23:04;;;;;;;;;;;;;;;14.61;68.57;100427.84;5056090;28;20107;-63
2022/05/26 06:25:48;;;;;;;13.70;6.05;;;;;;;14.62;68.45;100434.81;5056181;28;20394;-63
2022/05/26 06:31:37;;;;;;;13.73;6.00;;;;;;;14.64;68.45;100436.56;5055930;28;20503;-63
2022/05/26 06:37:30;;;;;;;15.23;6.20;;;;;;;14.65;68.63;100451.34;5055317;28;20106;-63
2022/05/26 06:40:14;;;;;;;12.75;6.53;;;;;;;14.65;68.63;100452.22;5056050;28;20044;-64
2022/05/26 06:42:58;;;;;;;15.02;6.65;;;;;;;14.65;68.59;100449.59;5055801;28;20131;-63
2022/05/26 06:45:45;;;;;;;13.27;5.72;;;;;;;14.65;68.73;100465.25;5055605;28;20048;-63
2022/05/26 06:48:30;;;;;;;12.90;5.88;;;;;;;14.67;68.82;100453.09;5040914;28;20106;-63
2022/05/26 06:51:15;;;;;;;17.35;5.53;;;;;;;14.67;68.59;100476.56;5040411;28;20580;-63
2022/05/26 06:53:59;;;;;;;13.48;6.47;;;;;;;14.67;68.53;100462.69;5055185;28;20474;-63
2022/05/26 06:56:43;;;;;;;14.73;5.97;;;;;;;14.66;68.18;100472.22;5039994;28;20436;-63
2022/05/26 06:59:27;;;;;;;10.82;5.38;;;;;;;14.68;68.32;100478.34;5055588;28;20056;-63
2022/05/26 07:02:15;;;;;;;14.25;5.22;;;;;;;14.69;68.62;100476.63;5034218;28;20052;-64
2022/05/26 07:05:05;;;;;;;14.52;5.97;;;;;;;14.65;68.50;100474.84;5034708;28;20045;-64
2022/05/26 07:07:54;;;;;;;12.93;6.18;;;;;;;14.67;68.48;100478.34;5034700;28;20518;-63
2022/05/26 07:10:42;;;;;;;11.50;6.65;;;;;;;14.68;68.50;100474.91;5034841;28;20040;-64
2022/05/26 07:13:32;;;;;;;15.93;5.60;;;;;;;14.69;68.49;100487.94;5034008;28;20076;-64
2022/05/26 07:16:19;;;;;;;14.52;6.75;;;;;;;14.69;68.49;100487.06;5033970;28;20044;-63
2022/05/26 07:19:03;;;;;;;14.68;5.97;;;;;;;14.69;68.82;100489.69;5035110;28;20053;-63
2022/05/26 07:21:48;;;;;;;14.20;6.35;;;;;;;14.71;68.72;100495.78;5033670;28;20040;-65
2022/05/26 07:24:32;;;;;;;16.48;6.65;;;;;;;14.72;68.58;100484.47;5034910;28;20175;-64
2022/05/26 07:27:20;;;;;;;12.00;5.20;;;;;;;14.73;68.67;100488.81;5034928;28;20098;-63
2022/05/26 07:30:07;;;;;;;13.25;5.65;;;;;;;14.73;68.56;100491.44;5035163;28;20052;-63
2022/05/26 07:32:51;;;;;;;14.25;5.63;;;;;;;14.74;68.45;100495.78;5033735;28;20559;-63
2022/05/26 07:35:35;;;;;;;14.43;5.72;;;;;;;14.73;68.42;100499.25;5033231;28;20103;-65
2022/05/26 07:41:25;;;;;;;12.93;5.63;;;;;;;14.70;68.58;100500.13;5034437;28;19920;-63
2022/05/26 07:44:10;;;;;;;14.43;5.28;;;;;;;14.73;68.49;100507.06;5033271;28;20048;-63
2022/05/26 07:46:54;;;;;;;13.43;5.30;;;;;;;14.72;68.38;100505.31;5034107;28;20496;-64
2022/05/26 07:49:45;;;;;;;11.10;4.82;;;;;;;14.73;68.41;100499.25;5034631;28;20083;-62
2022/05/26 07:52:30;;;;;;;14.73;4.78;;;;;;;14.74;68.54;100501.00;5034649;28;20064;-63
2022/05/26 07:55:24;;;;;;;12.10;5.50;;;;;;;14.75;68.45;100507.97;5033185;28;20067;-63
2022/05/26 07:58:12;;;;;;;16.85;5.80;;;;;;;14.75;68.58;100498.41;5034085;28;20049;-63
2022/05/26 08:00:56;;;;;;;10.10;5.10;;;;;;;14.75;68.37;100506.25;5034169;28;20095;-64
2022/05/26 08:03:40;;;;;;;14.57;5.78;;;;;;;14.76;68.52;100513.22;5034072;28;20040;-64
2022/05/26 08:06:26;;;;;;;17.42;5.70;;;;;;;14.78;68.35;100521.03;5034249;28;20056;-63
2022/05/26 08:09:10;;;;;;;16.15;5.43;;;;;;;14.77;68.50;100514.06;5034094;28;20080;-63
2022/05/26 08:11:54;;;;;;;13.00;5.60;;;;;;;14.78;68.36;100518.44;5034131;28;20053;-63
2022/05/26 08:14:41;;;;;;;11.35;5.10;;;;;;;14.79;68.39;100520.16;5033840;28;20068;-63
2022/05/26 08:17:25;;;;;;;12.48;4.35;;;;;;;14.80;68.34;100515.81;5032777;28;20080;-63
2022/05/26 08:20:10;;;;;;;11.15;5.18;;;;;;;14.82;68.55;100524.53;5033820;28;20044;-63
2022/05/26 08:22:54;;;;;;;15.82;5.25;;;;;;;14.80;68.40;100524.53;5033150;28;20111;-63
2022/05/26 08:25:39;;;;;;;10.35;4.95;;;;;;;14.80;68.33;100529.75;5032689;28;20091;-63
2022/05/26 08:28:24;;;;;;;12.20;4.93;;;;;;;14.81;68.34;100533.22;5032757;28;20095;-64
2022/05/26 08:31:10;;;;;;;15.32;5.38;;;;;;;14.82;68.34;100542.78;5032839;28;20132;-63
2022/05/26 08:33:54;;;;;;;11.77;5.07;;;;;;;14.83;68.43;100541.94;5032733;28;20051;-64
2022/05/26 08:36:38;;;;;;;;;;;;;;;14.81;68.32;100544.53;5034139;28;20511;-63
2022/05/26 08:39:23;;;;;;;13.75;4.38;;;;;;;14.80;68.31;100548.00;5034512;28;19924;-63
2022/05/26 08:42:19;;;;;;;12.20;4.60;;;;;;;14.81;68.46;100560.19;5033215;28;20082;-63
2022/05/26 08:45:21;;;;;;;10.90;4.90;;;;;;;14.83;68.45;100553.25;5032639;28;20095;-63
2022/05/26 08:48:15;;;;;;;10.75;5.07;;;;;;;14.84;68.31;100552.41;5032409;28;20067;-63
2022/05/26 08:51:01;;;;;;;;;;;;;;;14.86;68.34;100555.00;5032953;28;20417;-63
2022/05/26 08:53:45;;;;;;;11.55;4.93;;;;;;;14.87;68.41;100556.75;5033056;28;20465;-65
2022/05/26 08:56:31;;;;;;;13.02;4.20;;;;;;;14.89;67.96;100563.72;5033502;28;20048;-63
2022/05/26 08:59:20;;;;;;;14.23;4.90;;;;;;;14.91;68.31;100566.34;5032650;28;20045;-63
2022/05/26 09:02:10;;;;;;;12.80;5.20;;;;;;;14.94;68.18;100565.50;5031985;28;20200;-64
2022/05/26 09:04:59;;;;;;;15.00;5.30;;;;;;;14.93;68.14;100567.25;5032324;28;20048;-63
2022/05/26 09:14:38;;;;;;;9.85;4.25;;;;;;;14.97;68.21;100571.59;5033219;28;20053;-62
2022/05/26 09:17:28;;;;;;;16.95;5.78;;;;;;;15.01;68.12;100582.94;5031991;28;20559;-63
2022/05/26 09:20:33;;;;;;;13.57;6.30;;;;;;;15.05;67.92;100577.75;5032072;28;20531;-64
2022/05/26 09:23:25;;;;;;;8.57;5.68;;;;;;;15.07;67.99;100586.47;5033069;28;20056;-63
2022/05/26 09:26:11;;;;;;;12.00;5.63;;;;;;;15.09;67.91;100591.69;5032439;28;20527;-63
2022/05/26 09:29:10;;;;;;;11.90;5.32;;;;;;;15.10;67.77;100592.56;5032154;28;20060;-63
2022/05/26 09:31:56;;;;;;;10.52;5.10;;;;;;;15.14;67.81;100586.50;5033319;28;20527;-63
2022/05/26 09:34:40;;;;;;;13.95;5.72;;;;;;;15.15;67.80;100580.41;5032588;28;20057;-63
2022/05/26 09:37:38;;;;;;;15.90;7.15;;;;;;;15.16;67.93;100585.66;5032988;28;20535;-63
2022/05/26 09:40:29;;;;;;;15.32;6.03;;;;;;;15.16;67.66;100598.72;5033441;28;20091;-64
2022/05/26 09:43:17;;;;;;;18.83;6.10;;;;;;;15.17;67.71;100599.56;5031927;28;20064;-63
2022/05/26 09:46:10;;;;;;;16.50;6.93;;;;;;;15.20;67.54;100604.81;5032537;28;20056;-64
2022/05/26 09:49:08;;;;;;;15.38;7.43;;;;;;;15.22;67.63;100603.09;5032117;28;20099;-63
2022/05/26 09:52:06;;;;;;;15.55;7.43;;;;;;;15.25;67.61;100608.34;5032991;28;20124;-63
2022/05/26 09:55:09;;;;;;;10.77;6.63;;;;;;;15.29;67.44;100622.28;5032216;28;20048;-63
2022/05/26 09:58:15;;;;;;;17.42;7.47;;;;;;;15.29;67.42;100610.06;5033272;28;20084;-64
2022/05/26 10:01:02;;;;;;;13.75;7.70;;;;;;;15.29;67.80;100614.44;5036985;28;20067;-63
2022/05/26 10:04:04;;;;;;;12.63;8.18;;;;;;;15.27;67.52;100617.03;5036644;28;20102;-63
2022/05/26 10:07:01;;;;;;;11.77;7.65;;;;;;;15.26;67.37;100604.81;5035327;28;20049;-64
2022/05/26 10:10:01;;;;;;;16.75;7.78;;;;;;;15.25;67.39;100617.88;5035246;28;20107;-63
2022/05/26 10:13:06;;;;;;;12.43;7.38;;;;;;;15.26;67.21;100611.81;5036603;28;20052;-63
2022/05/26 10:16:12;;;;;;;13.27;8.45;;;;;;;15.26;67.30;100610.03;5036375;28;20500;-64
2022/05/26 10:19:19;;;;;;;13.50;7.35;;;;;;;15.28;67.14;100617.91;5035541;28;20125;-63
2022/05/26 10:22:15;;;;;;;12.95;6.85;;;;;;;15.28;67.06;100623.13;5035296;28;20103;-64
2022/05/26 10:25:32;;;;;;;12.48;6.68;;;;;;;15.28;67.26;100616.16;5035974;28;20045;-64
2022/05/26 10:28:37;;;;;;;11.60;5.90;;;;;;;15.30;67.46;100618.78;5035641;28;20044;-64
2022/05/26 10:31:44;;;;;;;13.13;6.35;;;;;;;15.29;67.28;100619.66;5035380;28;20057;-63
2022/05/26 10:35:25;;;;;;;11.63;6.32;;;;;;;15.28;67.22;100621.38;5034749;28;20530;-65
2022/05/26 10:38:22;;;;;;;12.95;6.55;;;;;;;15.28;67.40;100621.38;4975144;28;20167;-64
2022/05/26 10:41:31;;;;;;;11.27;5.50;;;;;;;15.30;67.10;100617.03;4974792;28;20082;-64
2022/05/26 10:44:34;;;;;;;12.52;6.15;;;;;;;15.30;67.10;100614.44;5034648;28;20040;-63
2022/05/26 10:47:56;;;;;;;10.15;5.03;;;;;;;15.35;67.14;100610.13;5034890;28;20475;-64
2022/05/26 10:50:46;;;;;;;10.02;4.80;;;;;;;15.34;66.91;100615.31;5035718;28;20067;-63
2022/05/26 10:54:08;;;;;;;11.10;5.50;;;;;;;15.33;66.95;100611.00;5035075;28;20135;-63
2022/05/26 10:57:17;;;;;;;8.48;4.50;;;;;;;15.36;66.91;100609.25;5034674;28;20060;-63
2022/05/26 11:00:20;;;;;;;10.45;4.10;;;;;;;15.37;67.08;100613.63;5035597;28;20132;-63
2022/05/26 11:03:19;;;;;;;8.52;3.92;;;;;;;15.42;66.84;100615.34;5034011;28;20415;-63
2022/05/26 11:06:31;;;;;;;12.77;4.28;;;;;;;15.41;66.96;100621.47;5034529;28;20064;-63
2022/05/26 11:09:30;;;;;;;8.43;4.38;;;;;;;15.41;66.89;100608.41;5034640;28;20052;-63
2022/05/26 11:12:20;;;;;;;7.38;3.70;;;;;;;15.42;66.71;100610.13;5034594;28;20092;-63
2022/05/26 11:18:28;;;;;;;9.38;3.78;;;;;;;15.42;66.78;100610.13;5035201;28;20048;-63
2022/05/26 11:21:21;;;;;;;5.97;3.00;;;;;;;15.43;66.69;100604.03;5035209;28;20057;-63
2022/05/26 11:24:12;;;;;;;8.18;3.78;;;;;;;15.45;66.61;100602.31;5035310;28;20443;-64
2022/05/26 11:27:15;;;;;;;7.55;3.60;;;;;;;15.44;66.74;100598.84;5034229;28;20475;-63
2022/05/26 11:36:07;;;;;;;9.52;3.88;;;;;;;15.45;66.73;100597.09;5033703;28;20048;-63
2022/05/26 11:36:54;;;;;;;8.55;2.90;;;;;;;15.48;66.63;100598.00;5034741;28;20074;-64
2022/05/26 11:39:45;;;;;;;7.65;3.10;;;;;;;15.49;66.44;100607.56;5033542;28;20091;-63
2022/05/26 11:42:33;;;;;;;8.13;3.38;;;;;;;15.49;66.61;100610.16;5034716;28;20507;-63
2022/05/26 11:45:22;;;;;;;7.70;3.47;;;;;;;15.50;66.54;100601.47;5033386;28;20099;-63
2022/05/26 11:48:32;;;;;;;13.45;3.80;;;;;;;15.50;66.47;100606.69;5033936;28;20175;-65
2022/05/26 11:51:45;;;;;;;10.57;3.92;;;;;;;15.53;66.36;100600.63;5033837;28;20067;-63
2022/05/26 11:54:55;;;;;;;7.45;3.40;;;;;;;15.53;66.39;100604.09;5029459;28;20132;-63
2022/05/26 11:57:45;;;;;;;6.60;3.10;;;;;;;15.57;66.35;100596.28;5033910;28;20041;-63
2022/05/26 12:00:40;;;;;;;7.82;3.35;;;;;;;15.59;66.46;100597.16;5034540;28;20242;-64
2022/05/26 12:03:37;;;;;;;6.15;2.75;;;;;;;15.59;66.17;100605.00;5033410;28;20080;-63
2022/05/26 12:06:53;;;;;;;11.65;3.15;;;;;;;15.59;66.36;100607.63;5033094;28;20176;-63
2022/05/26 12:09:59;;;;;;;7.43;3.13;;;;;;;15.58;66.24;100604.13;5033928;28;20455;-64
2022/05/26 12:12:44;;;;;;;5.72;2.50;;;;;;;15.62;66.32;100597.19;5033978;28;20116;-64
2022/05/26 12:15:33;;;;;;;7.85;2.70;;;;;;;15.63;66.16;100598.94;5034092;28;20053;-63
2022/05/26 12:18:19;;;;;;;8.05;3.10;;;;;;;15.62;65.72;100594.56;5032960;28;20049;-63
2022/05/26 12:21:33;;;;;;;6.28;2.67;;;;;;;15.62;66.20;100600.66;5033638;28;20072;-64
2022/05/26 12:24:36;;;;;;;4.47;2.60;;;;;;;15.66;66.19;100601.53;5033839;28;20067;-63
2022/05/26 12:27:48;;;;;;;5.30;2.67;;;;;;;15.69;65.86;100598.94;5033029;28;20060;-63
2022/05/26 12:30:44;;;;;;;10.95;2.65;;;;;;;15.70;65.94;100590.25;5033524;28;20036;-65
2022/05/26 12:33:47;;;;;;;6.60;2.33;;;;;;;15.72;65.87;100595.50;5033911;28;20085;-63
2022/05/26 12:36:43;;;;;;;5.35;2.35;;;;;;;15.70;65.93;100585.00;5032940;28;20049;-64
2022/05/26 12:39:48;;;;;;;5.90;2.13;;;;;;;15.71;65.81;100583.28;5033679;28;20052;-62
2022/05/26 12:43:06;;;;;;;7.05;2.70;;;;;;;15.70;65.62;100566.72;5032866;28;20079;-63
2022/05/26 12:46:22;;;;;;;6.25;2.58;;;;;;;15.71;65.69;100571.06;5010606;28;20124;-64
2022/05/26 12:49:26;;;;;;;6.85;2.67;;;;;;;15.72;65.74;100551.94;5030743;28;20143;-63
2022/05/26 12:52:31;;;;;;;4.28;2.00;;;;;;;15.72;65.71;100556.28;5033804;28;20067;-63
2022/05/26 12:55:21;;;;;;;;;;;;;;;15.70;65.52;100544.97;5033311;28;20558;-64
2022/05/26 12:58:49;;;;;;;4.50;2.38;;;;;;;15.70;65.58;100550.19;5033528;28;19971;-64
2022/05/26 13:01:49;;;;;;;5.38;2.20;;;;;;;15.73;65.56;100545.84;5035913;28;20106;-64
2022/05/26 13:04:47;;;;;;;13.20;3.70;;;;;;;15.75;65.66;100548.44;5038071;28;20048;-64
2022/05/26 13:07:45;;;;;;;4.97;2.40;;;;;;;15.74;65.53;100552.81;5038543;28;20404;-63
2022/05/26 13:10:43;;;;;;;5.90;2.60;;;;;;;15.77;65.57;100549.31;5052985;28;20052;-64
2022/05/26 13:13:41;;;;;;;6.03;2.50;;;;;;;15.78;65.43;100545.84;5038166;28;20404;-64
2022/05/26 13:16:41;;;;;;;6.10;2.80;;;;;;;15.80;65.48;100546.72;5037590;28;20415;-63
2022/05/26 13:19:24;;;;;;;5.72;2.40;;;;;;;15.81;65.40;100538.00;5037867;28;20420;-63
2022/05/26 13:22:16;;;;;;;6.18;2.42;;;;;;;15.81;65.24;100531.03;5038477;28;20079;-64
2022/05/26 13:25:15;;;;;;;5.30;2.58;;;;;;;15.81;65.21;100538.00;5037979;28;20525;-63
2022/05/26 13:28:08;;;;;;;5.30;2.53;;;;;;;15.81;65.14;100538.00;5053080;28;20051;-63
2022/05/26 13:34:05;;;;;;;6.93;2.90;;;;;;;15.83;65.19;100538.88;5056106;28;20106;-63
2022/05/26 13:37:06;;;;;;;6.65;3.10;;;;;;;15.83;65.30;100539.75;5042041;28;20049;-63
2022/05/26 13:40:16;;;;;;;6.88;2.75;;;;;;;15.84;65.24;100531.03;5041556;28;20095;-63
2022/05/26 13:45:45;;;;;;;8.27;2.67;;;;;;;15.87;65.26;100550.25;5111390;27;20139;-63
2022/05/26 13:48:39;;;;;;;8.32;2.80;;;;;;;15.88;65.17;100541.53;5111166;28;20055;-64
2022/05/26 13:51:38;;;;;;;8.68;3.17;;;;;;;15.88;65.11;100547.66;5095719;28;20407;-64
2022/05/26 13:54:38;;;;;;;6.97;2.60;;;;;;;15.88;65.12;100529.38;5095817;28;20582;-63
2022/05/26 13:57:48;;;;;;;6.40;2.25;;;;;;;15.90;65.19;100542.41;5095541;28;20066;-64
2022/05/26 14:00:44;;;;;;;13.65;2.50;;;;;;;15.92;65.10;100543.31;5095600;28;20050;-64